Latest Weather Observations for Frankston

IDV60801

Issued at 6:32 am EST Wednesday 28 September 2016 (issued every 30 minutes, with the page automatically refreshed every 10 minutes)

About weather observations | Map of weather stations | Latest weather observations for VIC | Other Formats
Station Details ID: 086371 Name: FRANKSTON AWS Lat: -38.15 Lon: 145.12 Height: 6.0 m
Data from the previous 72 hours. | See also: Recent months at Frankston
Date/Time
EST
Temp
°C
App
Temp
°C
Dew
Point
°C
Rel
Hum
%
Delta-T
°C
Wind Press
QNH
hPa
Press
MSL
hPa
Rain since
9am
mm
Dir  Spd
km/h
Gust
km/h
Spd
kts
Gust
kts
28/06:30am 8.3 7.2 6.8 90 0.7 ESE 2 6 1 3 - - -
28/06:00am 7.9 6.7 6.4 90 0.7 ESE 2 6 1 3 - - -
28/05:30am 7.8 6.1 6.1 89 0.8 ESE 4 6 2 3 - - -
28/05:00am 8.5 6.6 6.5 87 0.9 E 6 7 3 4 - - -
28/04:30am 8.8 6.7 6.6 86 1.0 E 7 9 4 5 - - -
28/04:00am 9.7 7.4 7.3 85 1.1 NNE 9 13 5 7 - - -
28/03:30am 10.9 6.9 8.1 83 1.4 N 19 24 10 13 - - -
28/03:00am 10.9 7.2 8.0 82 1.4 N 17 20 9 11 - - -
28/02:30am 11.1 7.8 8.1 82 1.5 N 15 19 8 10 - - -
28/02:00am 11.1 7.5 8.3 83 1.4 N 17 20 9 11 - - -
28/01:30am 11.2 8.1 8.8 85 1.2 N 15 17 8 9 - - -
28/01:00am 9.6 8.4 8.0 90 0.8 ENE 4 9 2 5 - - -
28/12:30am 9.4 8.2 8.0 91 0.7 E 4 6 2 3 - - -
28/12:00am 9.2 8.4 8.0 92 0.6 SE 2 4 1 2 - - -
 
Date/Time
EST
Temp
°C
App
Temp
°C
Dew
Point
°C
Rel
Hum
%
Delta-T
°C
Wind Press
QNH
hPa
Press
MSL
hPa
Rain since
9am
mm
Dir  Spd
km/h
Gust
km/h
Spd
kts
Gust
kts
27/11:30pm 9.2 7.6 7.8 91 0.7 ESE 6 7 3 4 - - -
27/11:00pm 9.6 8.4 8.0 90 0.8 ESE 4 6 2 3 - - -
27/10:30pm 9.9 8.7 8.2 89 0.8 E 4 6 2 3 - - -
27/10:00pm 10.1 8.5 8.2 88 0.9 E 6 9 3 5 - - -
27/09:30pm 10.0 8.9 8.3 89 0.8 E 4 7 2 4 - - -
27/09:00pm 10.0 9.6 8.4 90 0.8 CALM 0 0 0 0 - - -
27/08:30pm 10.0 9.6 8.1 88 0.9 CALM 0 0 0 0 - - -
27/08:00pm 10.3 9.9 8.1 86 1.1 CALM 0 0 0 0 - - -
27/07:30pm 11.4 11.0 8.4 82 1.5 CALM 0 0 0 0 - - -
27/07:00pm 12.3 12.0 8.8 79 1.7 CALM 0 0 0 0 - - -
27/06:30pm 12.3 11.7 9.0 80 1.7 WSW 2 4 1 2 - - -
27/06:00pm 12.4 10.9 9.1 80 1.7 WSW 7 9 4 5 - - -
27/05:30pm 12.2 10.8 8.7 79 1.7 W 6 7 3 4 - - -
27/05:00pm 12.3 10.7 8.6 78 1.8 WSW 7 9 4 5 - - -
27/04:30pm 12.4 9.7 8.9 79 1.8 WSW 13 20 7 11 - - -
27/04:00pm 12.0 10.7 10.1 88 1.0 SSW 7 13 4 7 - - -
27/03:30pm 11.7 8.8 9.6 87 1.1 WSW 15 22 8 12 - - -
27/03:00pm 11.3 8.4 9.6 89 0.9 SW 15 26 8 14 - - -
27/02:30pm 11.4 7.8 9.7 89 0.9 W 19 24 10 13 - - -
27/02:00pm 11.7 8.0 10.1 90 0.8 W 20 26 11 14 - - -
27/01:30pm 12.0 7.8 9.6 85 1.2 WNW 22 30 12 16 - - -
27/01:00pm 12.4 10.0 8.7 78 1.8 NW 11 13 6 7 - - -
27/12:30pm 11.9 9.1 8.4 79 1.7 WNW 13 15 7 8 - - -
27/12:00pm 11.6 8.1 8.6 82 1.5 WNW 17 20 9 11 - - -
27/11:30am 10.8 6.7 8.0 83 1.4 WNW 19 24 10 13 - - -
27/11:00am 10.7 6.5 8.3 85 1.2 WNW 20 24 11 13 - - -
27/10:30am 10.2 5.2 8.0 86 1.1 NW 24 28 13 15 - - -
27/10:00am 10.0 4.9 7.8 86 1.1 WNW 24 28 13 15 - - -
27/09:30am 9.3 4.4 6.9 85 1.1 WNW 22 26 12 14 - - -
27/09:00am 9.8 4.9 6.9 82 1.4 WNW 22 26 12 14 - - -
27/08:30am 9.7 4.6 6.2 79 1.6 NW 22 28 12 15 - - -
27/08:00am 9.9 4.4 5.9 76 1.8 WNW 24 28 13 15 - - -
27/07:30am 10.1 3.9 6.1 76 1.9 WNW 28 33 15 18 - - -
27/07:00am 9.9 4.1 6.3 78 1.7 WNW 26 32 14 17 - - -
27/06:30am 10.2 4.8 6.5 78 1.7 W 24 30 13 16 - - -
27/06:00am 10.2 4.4 6.4 77 1.8 W 26 32 14 17 - - -
27/05:30am 9.9 3.7 6.1 77 1.8 W 28 33 15 18 - - -
27/05:00am 9.8 4.0 6.3 79 1.6 WNW 26 33 14 18 - - -
27/04:30am 10.3 4.2 6.6 78 1.7 WNW 28 35 15 19 - - -
27/04:00am 10.0 3.8 6.0 76 1.8 WNW 28 33 15 18 - - -
27/03:30am 10.2 4.3 6.0 75 1.9 WNW 26 33 14 18 - - -
27/03:00am 10.3 4.6 6.8 79 1.6 WNW 26 33 14 18 - - -
27/02:30am 10.2 3.7 6.4 77 1.8 WNW 30 35 16 19 - - -
27/02:00am 10.3 4.0 5.7 73 2.1 WNW 28 32 15 17 - - -
27/01:30am 10.6 6.0 6.6 76 1.9 NW 20 28 11 15 - - -
27/01:00am 10.0 7.1 8.3 89 0.8 N 13 19 7 10 - - -
27/12:30am 8.6 6.8 7.2 91 0.7 ENE 6 11 3 6 - - -
27/12:00am 8.5 6.7 7.0 90 0.7 NE 6 7 3 4 - - -
 
Date/Time
EST
Temp
°C
App
Temp
°C
Dew
Point
°C
Rel
Hum
%
Delta-T
°C
Wind Press
QNH
hPa
Press
MSL
hPa
Rain since
9am
mm
Dir  Spd
km/h
Gust
km/h
Spd
kts
Gust
kts
26/11:30pm 8.8 8.1 7.1 89 0.8 CALM 0 2 0 1 - - -
26/11:00pm 9.0 7.5 7.0 87 0.9 NE 4 9 2 5 - - -
26/10:30pm 9.5 5.9 6.8 83 1.3 NNW 15 22 8 12 - - -
26/10:00pm 9.9 2.9 6.8 81 1.5 W 33 39 18 21 - - -
26/09:30pm 9.9 3.6 7.2 83 1.3 W 30 39 16 21 - - -
26/09:00pm 9.6 1.5 7.0 84 1.2 WSW 39 46 21 25 - - -
26/08:36pm 9.7 3.9 7.8 88 0.9 WNW 28 44 15 24 - - -
26/08:30pm 11.9 10.0 9.1 83 1.4 NNW 9 35 5 19 - - -
26/08:00pm 11.7 9.3 8.7 82 1.5 N 11 17 6 9 - - -
26/07:30pm 11.8 9.8 8.5 80 1.6 N 9 13 5 7 - - -
26/07:00pm 11.4 4.5 8.8 84 1.3 NW 35 46 19 25 - - -
26/06:52pm 12.1 7.7 7.6 74 2.2 NNW 20 46 11 25 - - -
26/06:30pm 14.6 12.5 5.7 55 4.2 NNE 6 7 3 4 - - -
26/06:00pm 14.4 12.5 6.7 60 3.7 NNE 6 6 3 3 - - -
26/05:30pm 14.1 12.2 6.7 61 3.6 N 6 7 3 4 - - -
26/05:00pm 13.9 12.0 6.7 62 3.5 N 6 6 3 3 - - -
26/04:30pm 13.9 11.7 6.0 59 3.8 WNW 7 9 4 5 - - -
26/04:00pm 13.4 8.8 6.5 63 3.3 W 20 26 11 14 - - -
26/03:30pm 14.2 11.7 4.8 53 4.4 WSW 7 9 4 5 - - -
26/03:00pm 15.1 13.8 4.2 48 5.0 CALM 0 0 0 0 - - -
26/02:30pm 14.0 11.5 4.0 51 4.6 WSW 6 6 3 3 - - -
26/02:00pm 13.6 11.1 4.7 55 4.1 W 7 7 4 4 - - -
26/01:30pm 13.4 10.9 4.0 53 4.3 WSW 6 6 3 3 - - -
26/01:00pm 12.9 10.8 5.6 61 3.4 WSW 6 6 3 3 - - -
26/12:30pm 12.5 10.5 6.1 65 3.0 W 6 6 3 3 - - -
26/12:00pm 12.6 10.9 6.0 64 3.1 NW 4 6 2 3 - - -
26/11:30am 12.2 9.9 5.6 64 3.1 WNW 7 9 4 5 - - -
26/11:00am 12.1 9.2 6.6 69 2.6 WNW 11 13 6 7 - - -
26/10:30am 12.0 8.8 6.7 70 2.5 NW 13 17 7 9 - - -
26/10:00am 11.9 8.3 6.8 71 2.4 NW 15 17 8 9 - - -
26/09:30am 11.8 8.1 6.5 70 2.5 NNW 15 19 8 10 - - -
26/09:00am 11.2 8.5 7.5 78 1.8 N 11 15 6 8 - - -
26/08:30am 10.4 7.6 7.1 80 1.6 NNE 11 13 6 7 - - -
26/08:00am 9.9 7.1 6.8 81 1.5 NNE 11 15 6 8 - - -
26/07:30am 10.1 8.1 6.4 78 1.7 NE 6 7 3 4 - - -
26/07:00am 9.6 7.9 6.0 78 1.7 NE 4 7 2 4 - - -
26/06:30am 9.3 7.2 5.7 78 1.6 NE 6 9 3 5 - - -
26/06:00am 9.3 6.6 5.7 78 1.6 NE 9 13 5 7 - - -
26/05:30am 8.9 7.1 5.6 80 1.5 NE 4 7 2 4 - - -
26/05:00am 8.6 6.8 5.4 80 1.4 E 4 4 2 2 - - -
26/04:30am 8.7 6.9 5.3 79 1.5 NE 4 7 2 4 - - -
26/04:00am 8.5 6.3 5.1 79 1.5 E 6 9 3 5 - - -
26/03:30am 8.5 6.6 5.1 79 1.5 ENE 4 7 2 4 - - -
26/03:00am 8.6 6.3 5.0 78 1.6 E 6 7 3 4 - - -
26/02:30am 8.3 6.4 4.7 78 1.6 ESE 4 6 2 3 - - -
26/02:00am 8.5 6.9 4.7 77 1.7 SE 2 6 1 3 - - -
26/01:30am 8.6 6.7 4.8 77 1.7 ESE 4 7 2 4 - - -
26/01:00am 8.6 6.3 4.6 76 1.8 ESE 6 9 3 5 - - -
26/12:30am 8.2 6.6 4.4 77 1.7 ESE 2 7 1 4 - - -
26/12:00am 8.7 6.8 4.7 76 1.8 ESE 4 6 2 3 - - -
 
Date/Time
EST
Temp
°C
App
Temp
°C
Dew
Point
°C
Rel
Hum
%
Delta-T
°C
Wind Press
QNH
hPa
Press
MSL
hPa
Rain since
9am
mm
Dir  Spd
km/h
Gust
km/h
Spd
kts
Gust
kts
25/11:30pm 8.7 6.8 4.7 76 1.8 SE 4 6 2 3 - - -
25/11:00pm - - - - - CALM 0 0 0 0 - - -
25/10:30pm 9.4 7.5 5.0 74 2.0 SE 4 6 2 3 - - -
25/10:00pm 10.0 8.1 5.0 71 2.3 SE 4 6 2 3 - - -
25/09:30pm 10.3 8.4 4.9 69 2.4 SE 4 4 2 2 - - -
25/09:00pm 11.0 9.0 4.5 64 2.9 SSE 4 4 2 2 - - -
25/08:30pm 11.3 9.7 4.5 63 3.1 SSW 2 4 1 2 - - -
25/08:00pm 11.3 9.7 4.7 64 3.0 SSE 2 4 1 2 - - -
25/07:30pm 11.1 8.8 4.6 64 2.9 SSW 6 7 3 4 - - -
25/07:00pm 11.4 9.4 4.2 61 3.2 S 4 6 2 3 - - -
25/06:30pm 11.8 9.1 3.8 58 3.6 SW 7 11 4 6 - - -
25/06:00pm 12.3 9.0 4.3 58 3.6 SW 11 15 6 8 - - -
25/05:30pm 12.4 7.6 4.6 59 3.6 WSW 19 24 10 13 - - -
25/05:00pm 12.4 7.1 4.9 60 3.4 WSW 22 24 12 13 - - -
25/04:30pm 12.5 8.3 5.9 64 3.1 WSW 17 20 9 11 - - -
25/04:00pm 12.4 7.5 5.1 61 3.4 WSW 20 24 11 13 - - -
25/03:30pm 12.3 7.6 5.2 62 3.3 WSW 19 24 10 13 - - -
25/03:00pm 12.2 6.8 4.7 60 3.4 WSW 22 26 12 14 - - -
25/02:30pm 12.0 7.7 5.4 64 3.1 WSW 17 20 9 11 - - -
25/02:00pm 11.8 7.3 6.1 68 2.7 WSW 19 22 10 12 - - -
25/01:30pm 11.0 4.9 6.7 75 2.0 W 28 35 15 19 - - -
25/01:00pm 12.2 7.1 3.9 57 3.7 W 20 26 11 14 - - -
25/12:30pm 12.1 7.5 5.5 64 3.1 W 19 20 10 11 - - -
25/12:00pm 11.9 6.6 4.9 62 3.2 W 22 26 12 14 - - -
25/11:30am 11.6 5.8 4.6 62 3.2 WSW 24 28 13 15 - - -
25/11:00am 11.5 6.3 5.4 66 2.8 W 22 28 12 15 - - -
25/10:30am 11.2 6.1 6.1 71 2.4 W 22 28 12 15 - - -
25/10:00am 11.0 5.5 5.7 70 2.4 W 24 30 13 16 - - -
25/09:30am 10.8 5.4 6.2 73 2.1 W 24 32 13 17 - - -
25/09:00am 10.6 4.7 6.0 73 2.1 W 26 30 14 16 - - -
25/08:30am 10.4 4.2 6.0 74 2.0 W 28 33 15 18 - - -
25/08:00am 10.3 4.2 6.6 78 1.7 W 28 32 15 17 - - -
25/07:30am 10.4 4.1 7.3 81 1.5 W 30 37 16 20 - - -
25/07:00am 10.7 5.3 7.9 83 1.4 W 26 32 14 17 - - -

Other Formats:

Comma delimited format used in spreadsheet applications
http://www.bom.gov.au/fwo/IDV60801/IDV60801.94871.axf

JavaScript Object Notation format (JSON) in row-major order
http://www.bom.gov.au/fwo/IDV60801/IDV60801.94871.json